Time;durP1;ratioP1;P1;durP2;ratioP2;P2;SDS_P1;SDS_P2;PMS_P1;PMS_P2;Temp;Humidity;BMP_temperature;BMP_pressure;BME280_temperature;BME280_humidity;BME280_pressure;Samples;Min_cycle;Max_cycle;Signal;HPM_P1;HPM_P2
2022/10/13 00:01:39;;;;;;;;;;;18.50;65.50;;;;;;5036354;27;91697;-68
2022/10/13 00:04:05;;;;;;;;;;;18.50;65.50;;;;;;5022901;27;90886;-60
2022/10/13 00:06:31;;;;;;;;;;;18.50;65.50;;;;;;5022641;27;91632;-67
2022/10/13 00:08:57;;;;;;;;;;;18.50;65.50;;;;;;5039251;27;90169;-66
2022/10/13 00:11:24;;;;;;;;;;;18.50;65.40;;;;;;5007783;27;92335;-67
2022/10/13 00:13:50;;;;;;;;;;;18.50;65.30;;;;;;5038963;27;92936;-62
2022/10/13 00:16:16;;;;;;;;;;;18.50;65.30;;;;;;5043743;27;90838;-64
2022/10/13 00:18:42;;;;;;;;;;;18.50;65.40;;;;;;5045742;27;95367;-68
2022/10/13 00:21:09;;;;;;;;;;;18.50;65.30;;;;;;5045628;27;91342;-68
2022/10/13 00:23:35;;;;;;;;;;;18.50;65.30;;;;;;5047377;27;92469;-69
2022/10/13 00:26:02;;;;;;;;;;;18.50;65.30;;;;;;5038124;27;89953;-68
2022/10/13 00:28:27;;;;;;;;;;;18.50;65.30;;;;;;5045973;27;89802;-68
2022/10/13 00:30:52;;;;;;;;;;;18.50;65.30;;;;;;5049613;27;91452;-60
2022/10/13 00:33:18;;;;;;;;;;;18.50;65.30;;;;;;5045397;27;90124;-63
2022/10/13 00:35:45;;;;;;;;;;;18.50;65.30;;;;;;5049209;27;90048;-67
2022/10/13 00:38:10;;;;;;;;;;;18.50;65.20;;;;;;5042201;27;89842;-67
2022/10/13 00:40:45;;;;;;;;;;;18.50;65.30;;;;;;5046278;27;94049;-61
2022/10/13 00:43:15;;;;;;;;;;;18.50;65.30;;;;;;5046719;27;91354;-68
2022/10/13 00:45:40;;;;;;;;;;;18.50;65.20;;;;;;5040345;27;89929;-67
2022/10/13 00:48:06;;;;;;;;;;;18.50;65.10;;;;;;5036736;27;89921;-67
2022/10/13 00:50:34;;;;;;;;;;;18.50;65.20;;;;;;5041170;27;91197;-67
2022/10/13 00:53:00;;;;;;;;;;;18.50;65.20;;;;;;5050799;27;90361;-68
2022/10/13 00:55:28;;;;;;;;;;;18.40;65.10;;;;;;5041635;27;90803;-68
2022/10/13 00:57:55;;;;;;;;;;;18.40;65.10;;;;;;5043633;27;90173;-65
2022/10/13 01:00:23;;;;;;;;;;;18.40;65.00;;;;;;5041105;27;89947;-59
2022/10/13 01:02:49;;;;;;;;;;;18.40;65.00;;;;;;5049457;27;90005;-66
2022/10/13 01:05:16;;;;;;;;;;;18.50;65.10;;;;;;5047247;27;90582;-54
2022/10/13 01:07:41;;;;;;;;;;;18.40;65.00;;;;;;5046060;27;89592;-58
2022/10/13 01:10:07;;;;;;;;;;;18.40;65.00;;;;;;5047255;27;91647;-56
2022/10/13 01:13:05;;;;;;;;;;;18.50;65.00;;;;;;5046340;27;89471;-55
2022/10/13 01:15:35;;;;;;;;;;;18.40;65.00;;;;;;4994471;27;89625;-57
2022/10/13 01:18:20;;;;;;;;;;;18.40;64.90;;;;;;5047312;27;91768;-56
2022/10/13 01:20:52;;;;;;;;;;;18.40;64.90;;;;;;5047250;27;90908;-57
2022/10/13 01:23:25;;;;;;;;;;;18.40;65.00;;;;;;5041010;27;91667;-56
2022/10/13 01:26:09;;;;;;;;;;;18.40;65.00;;;;;;5045691;27;96955;-55
2022/10/13 01:28:51;;;;;;;;;;;18.40;64.80;;;;;;5047841;27;95588;-56
2022/10/13 01:31:26;;;;;;;;;;;18.50;65.00;;;;;;5047553;27;90244;-55
2022/10/13 01:33:57;;;;;;;;;;;18.40;64.90;;;;;;5043120;27;89410;-55
2022/10/13 01:36:29;;;;;;;;;;;18.40;64.90;;;;;;5045824;27;90017;-56
2022/10/13 01:38:59;;;;;;;;;;;18.40;65.60;;;;;;5041552;27;89351;-56
2022/10/13 01:41:36;;;;;;;;;;;18.40;65.00;;;;;;5038581;27;90277;-55
2022/10/13 01:44:07;;;;;;;;;;;18.40;65.00;;;;;;5046604;27;90137;-56
2022/10/13 01:46:34;;;;;;;;;;;18.40;64.90;;;;;;5049162;27;90841;-55
2022/10/13 01:49:02;;;;;;;;;;;18.40;65.00;;;;;;5055807;27;89754;-55
2022/10/13 01:51:30;;;;;;;;;;;18.40;65.00;;;;;;5041055;27;92078;-55
2022/10/13 01:53:55;;;;;;;;;;;18.40;65.00;;;;;;5041012;27;91141;-56
2022/10/13 01:56:21;;;;;;;;;;;18.30;65.00;;;;;;5046377;27;89906;-53
2022/10/13 01:58:48;;;;;;;;;;;18.40;65.00;;;;;;5045102;27;89896;-52
2022/10/13 02:01:32;;;;;;;;;;;18.30;65.00;;;;;;5040423;27;89844;-55
2022/10/13 02:04:15;;;;;;;;;;;18.40;65.00;;;;;;5045953;27;90620;-54
2022/10/13 02:06:45;;;;;;;;;;;18.40;64.90;;;;;;5041308;27;90312;-51
2022/10/13 02:09:10;;;;;;;;;;;18.30;65.00;;;;;;5047701;27;89659;-55
2022/10/13 02:11:37;;;;;;;;;;;18.40;65.70;;;;;;5035339;27;90908;-56
2022/10/13 02:14:03;;;;;;;;;;;18.40;64.90;;;;;;5046249;27;94629;-57
2022/10/13 02:16:30;;;;;;;;;;;18.40;65.00;;;;;;5047710;27;89781;-59
2022/10/13 02:18:56;;;;;;;;;;;18.40;64.90;;;;;;5051978;27;90136;-55
2022/10/13 02:21:22;;;;;;;;;;;18.40;64.90;;;;;;5042490;27;90130;-55
2022/10/13 02:23:48;;;;;;;;;;;18.30;64.90;;;;;;5048286;27;89876;-55
2022/10/13 02:26:13;;;;;;;;;;;18.30;64.90;;;;;;5049582;27;90578;-58
2022/10/13 02:28:39;;;;;;;;;;;18.30;64.90;;;;;;5047192;27;89256;-52
2022/10/13 02:31:06;;;;;;;;;;;18.30;64.90;;;;;;5047979;27;89925;-56
2022/10/13 02:33:32;;;;;;;;;;;18.30;65.00;;;;;;5043646;27;91001;-55
2022/10/13 02:35:58;;;;;;;;;;;18.30;65.00;;;;;;5050032;27;93661;-56
2022/10/13 02:38:23;;;;;;;;;;;18.30;64.80;;;;;;5052063;27;93813;-55
2022/10/13 02:40:49;;;;;;;;;;;18.30;64.90;;;;;;5046357;27;90320;-55
2022/10/13 02:43:15;;;;;;;;;;;18.30;65.00;;;;;;5052059;27;89926;-55
2022/10/13 02:45:41;;;;;;;;;;;18.30;65.00;;;;;;5050062;27;89989;-57
2022/10/13 02:48:06;;;;;;;;;;;18.30;65.00;;;;;;5039437;27;92874;-56
2022/10/13 02:50:32;;;;;;;;;;;18.30;65.00;;;;;;5043892;27;90315;-56
2022/10/13 02:52:57;;;;;;;;;;;18.30;64.90;;;;;;5045178;27;88852;-55
2022/10/13 02:55:23;;;;;;;;;;;18.30;64.80;;;;;;5046555;27;95168;-52
2022/10/13 02:57:48;;;;;;;;;;;18.30;64.80;;;;;;5036503;27;94564;-54
2022/10/13 03:00:15;;;;;;;;;;;18.30;64.90;;;;;;5045954;27;92071;-64
2022/10/13 03:02:41;;;;;;;;;;;18.30;64.90;;;;;;5039745;27;90088;-65
2022/10/13 03:05:06;;;;;;;;;;;18.30;64.80;;;;;;5050794;27;90001;-64
2022/10/13 03:07:32;;;;;;;;;;;18.30;64.80;;;;;;5044787;27;96620;-60
2022/10/13 03:09:57;;;;;;;;;;;18.30;64.90;;;;;;5045043;27;90271;-67
2022/10/13 03:12:23;;;;;;;;;;;18.20;64.90;;;;;;5033592;27;91135;-66
2022/10/13 03:14:48;;;;;;;;;;;18.20;64.90;;;;;;5038941;27;89832;-67
2022/10/13 03:17:14;;;;;;;;;;;18.30;64.80;;;;;;5041184;27;90757;-68
2022/10/13 03:19:39;;;;;;;;;;;18.30;64.90;;;;;;5053318;27;89561;-66
2022/10/13 03:22:05;;;;;;;;;;;18.30;64.90;;;;;;5048044;27;89884;-67
2022/10/13 03:24:30;;;;;;;;;;;18.30;64.90;;;;;;5045543;27;90497;-64
2022/10/13 03:26:56;;;;;;;;;;;18.30;64.90;;;;;;5037679;27;91085;-66
2022/10/13 03:29:22;;;;;;;;;;;18.30;64.80;;;;;;5044760;27;89991;-68
2022/10/13 03:31:47;;;;;;;;;;;18.20;64.80;;;;;;5039733;27;90360;-67
2022/10/13 03:34:14;;;;;;;;;;;18.30;64.80;;;;;;5037942;27;90746;-66
2022/10/13 03:36:39;;;;;;;;;;;18.20;64.80;;;;;;5042694;27;91492;-67
2022/10/13 03:39:05;;;;;;;;;;;18.20;64.80;;;;;;5046256;27;92293;-67
2022/10/13 03:41:31;;;;;;;;;;;18.30;64.80;;;;;;5030254;27;90049;-67
2022/10/13 03:43:56;;;;;;;;;;;18.20;64.80;;;;;;5039615;27;89926;-67
2022/10/13 03:46:23;;;;;;;;;;;18.30;64.90;;;;;;5046244;27;91361;-58
2022/10/13 03:48:48;;;;;;;;;;;18.20;64.90;;;;;;5041924;27;93435;-67
2022/10/13 03:51:18;;;;;;;;;;;18.20;64.80;;;;;;5039983;27;91396;-68
2022/10/13 03:53:44;;;;;;;;;;;18.20;64.80;;;;;;5037643;27;92960;-68
2022/10/13 03:56:13;;;;;;;;;;;18.20;64.90;;;;;;5046839;27;90149;-61
2022/10/13 03:58:38;;;;;;;;;;;18.20;65.00;;;;;;5040996;27;90562;-63
2022/10/13 04:01:04;;;;;;;;;;;18.20;64.90;;;;;;5044859;27;90124;-69
2022/10/13 04:03:31;;;;;;;;;;;18.20;64.90;;;;;;5035758;27;92683;-55
2022/10/13 04:06:00;;;;;;;;;;;18.20;64.90;;;;;;5045799;27;89372;-55
2022/10/13 04:08:26;;;;;;;;;;;18.20;64.80;;;;;;5038072;27;90459;-53
2022/10/13 04:11:02;;;;;;;;;;;18.20;64.80;;;;;;5045972;27;90840;-56
2022/10/13 04:13:28;;;;;;;;;;;18.20;64.90;;;;;;5043637;27;91577;-56
2022/10/13 04:15:53;;;;;;;;;;;18.20;64.90;;;;;;5049761;27;89808;-58
2022/10/13 04:18:19;;;;;;;;;;;18.20;64.90;;;;;;5050451;27;90444;-55
2022/10/13 04:20:44;;;;;;;;;;;18.20;64.90;;;;;;5057433;27;90395;-56
2022/10/13 04:23:10;;;;;;;;;;;18.20;64.90;;;;;;5044553;27;93101;-53
2022/10/13 04:25:36;;;;;;;;;;;18.20;64.80;;;;;;5048687;27;89841;-55
2022/10/13 04:28:02;;;;;;;;;;;18.20;64.80;;;;;;5040061;27;90090;-55
2022/10/13 04:30:28;;;;;;;;;;;18.20;64.90;;;;;;5038222;27;89031;-55
2022/10/13 04:32:54;;;;;;;;;;;18.10;64.90;;;;;;5048744;27;90023;-56
2022/10/13 04:35:19;;;;;;;;;;;18.10;64.90;;;;;;5041601;27;92809;-57
2022/10/13 04:37:45;;;;;;;;;;;18.10;64.90;;;;;;5059337;27;90945;-58
2022/10/13 04:40:10;;;;;;;;;;;18.20;64.90;;;;;;5048544;27;90705;-55
2022/10/13 04:42:36;;;;;;;;;;;18.10;64.90;;;;;;5041769;27;90159;-56
2022/10/13 04:45:02;;;;;;;;;;;18.10;65.00;;;;;;5038282;27;90552;-57
2022/10/13 04:47:28;;;;;;;;;;;18.10;65.00;;;;;;5044668;27;90983;-57
2022/10/13 04:49:53;;;;;;;;;;;18.10;64.90;;;;;;5027576;27;91139;-56
2022/10/13 04:52:19;;;;;;;;;;;18.10;65.00;;;;;;5049417;27;89862;-56
2022/10/13 04:54:44;;;;;;;;;;;18.10;64.90;;;;;;5047358;27;89694;-56
2022/10/13 04:57:10;;;;;;;;;;;18.10;64.90;;;;;;5052226;27;90573;-56
2022/10/13 04:59:35;;;;;;;;;;;18.10;65.10;;;;;;5048770;27;89566;-56
2022/10/13 05:02:02;;;;;;;;;;;18.10;65.10;;;;;;5042926;27;98033;-57
2022/10/13 05:04:27;;;;;;;;;;;18.20;65.10;;;;;;5035871;27;90196;-57
2022/10/13 05:06:53;;;;;;;;;;;18.10;65.10;;;;;;5045515;27;91284;-57
2022/10/13 05:09:18;;;;;;;;;;;18.10;65.00;;;;;;5041269;27;96219;-57
2022/10/13 05:11:44;;;;;;;;;;;18.20;65.10;;;;;;5040484;27;91989;-58
2022/10/13 05:14:10;;;;;;;;;;;18.20;65.90;;;;;;5043474;27;89849;-55
2022/10/13 05:16:35;;;;;;;;;;;18.10;65.20;;;;;;5050719;27;90947;-57
2022/10/13 05:19:01;;;;;;;;;;;18.10;65.20;;;;;;5043040;27;92240;-55
2022/10/13 05:21:27;;;;;;;;;;;18.10;65.20;;;;;;5039877;27;90068;-58
2022/10/13 05:23:54;;;;;;;;;;;18.10;65.20;;;;;;5038965;27;91716;-55
2022/10/13 05:26:21;;;;;;;;;;;18.10;65.20;;;;;;5051743;27;90735;-55
2022/10/13 05:28:47;;;;;;;;;;;18.10;65.20;;;;;;5046064;27;91576;-57
2022/10/13 05:31:14;;;;;;;;;;;18.10;65.20;;;;;;5043237;27;97718;-56
2022/10/13 05:33:40;;;;;;;;;;;18.20;65.30;;;;;;5043236;27;90797;-57
2022/10/13 05:36:06;;;;;;;;;;;18.20;65.50;;;;;;5044015;27;96057;-57
2022/10/13 05:38:32;;;;;;;;;;;18.10;65.50;;;;;;5037379;27;90804;-55
2022/10/13 05:41:02;;;;;;;;;;;18.10;65.60;;;;;;5043193;27;90027;-58
2022/10/13 05:43:29;;;;;;;;;;;18.10;65.80;;;;;;5042110;27;90263;-55
2022/10/13 05:45:54;;;;;;;;;;;18.10;65.70;;;;;;5054956;27;89637;-55
2022/10/13 05:48:20;;;;;;;;;;;18.20;65.70;;;;;;5036953;27;91636;-54
2022/10/13 05:50:45;;;;;;;;;;;18.20;65.60;;;;;;5038014;27;91825;-59
2022/10/13 05:53:11;;;;;;;;;;;18.10;66.20;;;;;;5041286;27;91036;-60
2022/10/13 05:55:37;;;;;;;;;;;18.10;66.80;;;;;;5044739;27;92377;-60
2022/10/13 05:58:02;;;;;;;;;;;18.20;67.50;;;;;;5042715;27;91188;-60
2022/10/13 06:00:28;;;;;;;;;;;18.20;67.80;;;;;;5046444;27;90029;-60
2022/10/13 06:02:56;;;;;;;;;;;18.20;68.10;;;;;;5050626;27;90084;-60
2022/10/13 06:05:23;;;;;;;;;;;18.30;68.40;;;;;;5035233;27;92579;-59
2022/10/13 06:07:48;;;;;;;;;;;18.30;68.60;;;;;;5042818;27;89587;-59
2022/10/13 06:10:14;;;;;;;;;;;18.30;68.60;;;;;;5027181;27;90082;-60
2022/10/13 06:12:39;;;;;;;;;;;18.30;68.40;;;;;;5045251;27;93968;-57
2022/10/13 06:15:05;;;;;;;;;;;18.30;68.60;;;;;;5047022;27;94521;-57
2022/10/13 06:17:34;;;;;;;;;;;18.40;68.80;;;;;;5045109;27;91096;-55
2022/10/13 06:19:59;;;;;;;;;;;18.40;68.80;;;;;;5044561;27;89850;-59
2022/10/13 06:22:25;;;;;;;;;;;18.40;68.90;;;;;;5042878;27;89853;-58
2022/10/13 06:24:50;;;;;;;;;;;18.40;68.90;;;;;;5039887;27;90269;-55
2022/10/13 06:27:16;;;;;;;;;;;18.40;68.90;;;;;;5043594;27;90898;-59
2022/10/13 06:29:41;;;;;;;;;;;18.40;69.00;;;;;;5050558;27;89468;-59
2022/10/13 06:32:07;;;;;;;;;;;18.40;69.00;;;;;;5043997;27;90440;-58
2022/10/13 06:34:32;;;;;;;;;;;18.40;69.00;;;;;;5044859;27;91913;-59
2022/10/13 06:36:58;;;;;;;;;;;18.50;69.00;;;;;;5045989;27;89967;-59
2022/10/13 06:39:25;;;;;;;;;;;18.50;68.80;;;;;;5044136;27;93447;-61
2022/10/13 06:41:51;;;;;;;;;;;18.50;68.80;;;;;;5036451;27;94468;-57
2022/10/13 06:44:17;;;;;;;;;;;18.50;69.00;;;;;;5041494;27;91663;-59
2022/10/13 06:46:42;;;;;;;;;;;18.50;68.90;;;;;;5048434;27;90455;-59
2022/10/13 06:49:09;;;;;;;;;;;18.50;69.00;;;;;;5041233;27;90597;-59
2022/10/13 06:51:34;;;;;;;;;;;18.60;68.90;;;;;;5038855;27;90397;-59
2022/10/13 06:54:00;;;;;;;;;;;18.50;68.80;;;;;;5043998;27;90062;-60
2022/10/13 06:56:25;;;;;;;;;;;18.50;68.80;;;;;;5039919;27;91219;-60
2022/10/13 06:58:51;;;;;;;;;;;18.50;68.90;;;;;;5037531;27;92103;-59
2022/10/13 07:01:17;;;;;;;;;;;18.60;68.80;;;;;;5033306;27;89879;-59
2022/10/13 07:03:42;;;;;;;;;;;18.60;69.00;;;;;;5033429;27;91289;-59
2022/10/13 07:06:08;;;;;;;;;;;18.60;68.90;;;;;;5036517;27;90300;-57
2022/10/13 07:08:34;;;;;;;;;;;18.60;69.00;;;;;;5049011;27;91746;-57
2022/10/13 07:11:05;;;;;;;;;;;18.70;69.10;;;;;;5048533;27;89919;-59
2022/10/13 07:13:30;;;;;;;;;;;18.60;69.00;;;;;;5047666;27;89986;-59
2022/10/13 07:15:56;;;;;;;;;;;18.70;69.10;;;;;;5053069;27;91466;-58
2022/10/13 07:18:21;;;;;;;;;;;18.70;69.10;;;;;;5028908;27;89882;-56
2022/10/13 07:20:47;;;;;;;;;;;18.70;69.30;;;;;;5053855;27;90223;-58
2022/10/13 07:23:13;;;;;;;;;;;18.70;69.30;;;;;;5045326;27;89893;-60
2022/10/13 07:25:38;;;;;;;;;;;18.70;69.30;;;;;;5043897;27;89614;-61
2022/10/13 07:28:04;;;;;;;;;;;18.80;69.40;;;;;;5034224;27;91120;-59
2022/10/13 07:30:29;;;;;;;;;;;18.70;69.40;;;;;;5038338;27;89800;-60
2022/10/13 07:32:55;;;;;;;;;;;18.80;69.40;;;;;;5036275;27;91874;-57
2022/10/13 07:35:21;;;;;;;;;;;18.80;69.40;;;;;;5029370;27;90857;-58
2022/10/13 07:37:46;;;;;;;;;;;18.80;69.30;;;;;;5036356;27;90988;-58
2022/10/13 07:40:12;;;;;;;;;;;18.80;68.80;;;;;;5037291;27;93608;-57
2022/10/13 07:42:37;;;;;;;;;;;18.80;68.60;;;;;;5024785;27;90018;-57
2022/10/13 07:45:03;;;;;;;;;;;18.70;68.40;;;;;;5046490;27;89124;-62
2022/10/13 07:47:28;;;;;;;;;;;18.80;68.30;;;;;;5049674;27;90077;-62
2022/10/13 07:49:54;;;;;;;;;;;18.70;68.10;;;;;;5033595;27;90027;-67
2022/10/13 07:52:20;;;;;;;;;;;18.80;68.00;;;;;;5023317;27;91611;-63
2022/10/13 07:54:46;;;;;;;;;;;18.80;68.40;;;;;;5044791;27;90518;-63
2022/10/13 07:57:11;;;;;;;;;;;18.80;68.40;;;;;;5039480;27;90519;-62
2022/10/13 07:59:37;;;;;;;;;;;18.80;68.40;;;;;;5010338;27;92791;-68
2022/10/13 08:02:02;;;;;;;;;;;18.90;68.60;;;;;;5049369;27;90171;-62
2022/10/13 08:04:29;;;;;;;;;;;18.80;68.50;;;;;;5053690;27;89557;-63
2022/10/13 08:06:55;;;;;;;;;;;18.80;68.30;;;;;;5044512;27;91545;-64
2022/10/13 08:09:20;;;;;;;;;;;18.80;67.90;;;;;;5037961;27;89187;-65
2022/10/13 08:11:46;;;;;;;;;;;18.80;68.10;;;;;;5036499;27;93808;-63
2022/10/13 08:14:12;;;;;;;;;;;18.90;68.10;;;;;;5049445;27;89456;-58
2022/10/13 08:16:39;;;;;;;;;;;18.90;68.00;;;;;;5036426;27;90895;-61
2022/10/13 08:19:05;;;;;;;;;;;18.90;68.10;;;;;;5044526;27;93741;-64
2022/10/13 08:21:30;;;;;;;;;;;18.90;68.90;;;;;;5043715;27;90528;-59
2022/10/13 08:23:56;;;;;;;;;;;19.00;68.20;;;;;;5052436;27;89962;-64
2022/10/13 08:26:23;;;;;;;;;;;19.00;68.10;;;;;;5039545;27;90476;-57
2022/10/13 08:28:48;;;;;;;;;;;19.00;68.10;;;;;;5054824;27;90994;-66
2022/10/13 08:31:14;;;;;;;;;;;19.00;67.70;;;;;;5038523;27;91501;-60
2022/10/13 08:33:40;;;;;;;;;;;19.00;67.80;;;;;;5051727;27;89603;-66
2022/10/13 08:36:06;;;;;;;;;;;19.00;67.80;;;;;;5040923;27;90604;-67
2022/10/13 08:38:31;;;;;;;;;;;19.00;67.80;;;;;;5047100;27;92767;-62
2022/10/13 08:40:57;;;;;;;;;;;19.10;67.90;;;;;;5039356;27;92137;-52
2022/10/13 08:43:23;;;;;;;;;;;19.10;67.90;;;;;;5049543;27;90022;-56
2022/10/13 08:45:49;;;;;;;;;;;19.10;67.40;;;;;;5040591;27;90046;-57
2022/10/13 08:48:20;;;;;;;;;;;19.10;67.40;;;;;;5053114;27;91178;-58
2022/10/13 08:50:48;;;;;;;;;;;19.10;67.60;;;;;;5040620;27;94584;-58
2022/10/13 08:53:34;;;;;;;;;;;19.10;67.70;;;;;;5033990;27;90111;-59
2022/10/13 08:56:20;;;;;;;;;;;19.10;67.80;;;;;;5037346;27;90033;-58
2022/10/13 08:58:47;;;;;;;;;;;19.10;67.80;;;;;;5039515;27;89147;-56
2022/10/13 09:01:14;;;;;;;;;;;19.10;67.90;;;;;;5042581;27;90108;-57
2022/10/13 09:03:51;;;;;;;;;;;19.10;67.80;;;;;;5052289;27;89962;-58
2022/10/13 09:06:27;;;;;;;;;;;19.20;67.90;;;;;;5046623;27;91302;-60
2022/10/13 09:08:53;;;;;;;;;;;19.20;67.80;;;;;;5043821;27;90956;-56
2022/10/13 09:11:19;;;;;;;;;;;19.20;67.50;;;;;;5045528;27;91423;-55
2022/10/13 09:13:44;;;;;;;;;;;19.20;67.50;;;;;;5038811;27;89831;-53
2022/10/13 09:16:10;;;;;;;;;;;19.10;67.40;;;;;;5054443;27;89948;-54
2022/10/13 09:18:36;;;;;;;;;;;19.10;67.40;;;;;;5054032;27;89333;-55
2022/10/13 09:21:29;;;;;;;;;;;19.10;67.40;;;;;;5043894;27;93716;-58
2022/10/13 09:24:04;;;;;;;;;;;19.20;67.50;;;;;;5033855;27;90464;-58
2022/10/13 09:26:29;;;;;;;;;;;19.20;67.60;;;;;;5042666;27;90032;-56
2022/10/13 09:28:55;;;;;;;;;;;19.20;67.50;;;;;;5042293;27;89834;-57
2022/10/13 09:31:23;;;;;;;;;;;19.20;67.50;;;;;;5034958;27;91100;-55
2022/10/13 09:33:59;;;;;;;;;;;19.20;66.90;;;;;;5035791;27;90084;-57
2022/10/13 09:36:25;;;;;;;;;;;19.20;67.30;;;;;;5038103;27;90678;-58
2022/10/13 09:39:04;;;;;;;;;;;19.20;67.40;;;;;;5044684;27;90323;-56
2022/10/13 09:41:30;;;;;;;;;;;19.20;67.40;;;;;;5039086;27;90243;-55
2022/10/13 09:43:58;;;;;;;;;;;19.20;67.30;;;;;;5043221;27;90270;-56
2022/10/13 09:46:23;;;;;;;;;;;19.20;67.30;;;;;;5040265;27;90462;-57
2022/10/13 09:48:53;;;;;;;;;;;19.20;67.30;;;;;;5029701;27;89333;-55
2022/10/13 09:51:39;;;;;;;;;;;19.30;67.30;;;;;;5041344;27;90693;-52
2022/10/13 09:54:21;;;;;;;;;;;19.30;67.30;;;;;;5044645;27;90171;-57
2022/10/13 09:56:49;;;;;;;;;;;19.30;67.30;;;;;;5049819;27;90867;-53
2022/10/13 09:59:32;;;;;;;;;;;19.30;67.20;;;;;;5039689;27;91616;-54
2022/10/13 10:01:59;;;;;;;;;;;19.30;67.50;;;;;;5037664;27;90597;-56
2022/10/13 10:04:36;;;;;;;;;;;19.30;66.20;;;;;;5033052;27;89485;-59
2022/10/13 10:07:09;;;;;;;;;;;19.30;65.40;;;;;;5034062;27;89959;-58
2022/10/13 10:09:46;;;;;;;;;;;19.30;65.90;;;;;;5043622;27;90185;-56
2022/10/13 10:12:14;;;;;;;;;;;19.30;66.20;;;;;;5030341;27;90250;-59
2022/10/13 10:14:39;;;;;;;;;;;19.30;66.40;;;;;;5043295;27;90354;-59
2022/10/13 10:17:08;;;;;;;;;;;19.30;66.50;;;;;;5022660;27;91070;-59
2022/10/13 10:19:36;;;;;;;;;;;19.30;66.70;;;;;;5045205;27;90318;-60
2022/10/13 10:22:10;;;;;;;;;;;19.30;66.70;;;;;;5033529;27;91193;-54
2022/10/13 10:24:47;;;;;;;;;;;19.30;66.70;;;;;;5036926;27;90299;-59
2022/10/13 10:27:35;;;;;;;;;;;19.30;66.20;;;;;;5035156;27;94954;-55
2022/10/13 10:30:02;;;;;;;;;;;19.30;66.20;;;;;;5045217;27;89616;-58
2022/10/13 10:32:37;;;;;;;;;;;19.40;65.90;;;;;;5049898;27;90041;-56
2022/10/13 10:35:02;;;;;;;;;;;19.30;65.60;;;;;;5046980;27;90073;-56
2022/10/13 10:37:28;;;;;;;;;;;19.40;65.60;;;;;;5023176;27;92272;-56
2022/10/13 10:40:11;;;;;;;;;;;19.40;65.40;;;;;;5039181;27;89710;-55
2022/10/13 10:42:48;;;;;;;;;;;19.40;65.30;;;;;;5044137;27;90302;-56
2022/10/13 10:45:21;;;;;;;;;;;19.30;65.20;;;;;;5054543;27;89941;-57
2022/10/13 10:47:49;;;;;;;;;;;19.30;65.20;;;;;;5022874;27;95096;-58
2022/10/13 10:50:16;;;;;;;;;;;19.40;65.90;;;;;;5039410;27;91877;-55
2022/10/13 10:53:01;;;;;;;;;;;19.30;65.00;;;;;;5039200;27;90109;-57
2022/10/13 10:55:30;;;;;;;;;;;19.40;64.90;;;;;;4998981;27;89771;-57
2022/10/13 10:57:58;;;;;;;;;;;19.30;64.80;;;;;;5043383;27;90650;-58
2022/10/13 11:00:24;;;;;;;;;;;19.30;64.80;;;;;;5056191;27;90106;-58
2022/10/13 11:02:56;;;;;;;;;;;19.30;64.70;;;;;;5048466;27;91298;-58
2022/10/13 11:05:21;;;;;;;;;;;19.30;64.70;;;;;;5041887;27;90522;-60
2022/10/13 11:07:47;;;;;;;;;;;19.30;65.30;;;;;;5047682;27;90221;-55
2022/10/13 11:10:12;;;;;;;;;;;19.30;65.60;;;;;;5045042;27;93980;-57
2022/10/13 11:12:47;;;;;;;;;;;19.30;65.80;;;;;;5048817;27;90966;-58
2022/10/13 11:15:14;;;;;;;;;;;19.30;66.00;;;;;;5042128;27;90839;-56
2022/10/13 11:17:40;;;;;;;;;;;19.30;66.30;;;;;;5046204;27;93125;-59
2022/10/13 11:20:23;;;;;;;;;;;19.30;66.40;;;;;;5041171;27;91071;-57
2022/10/13 11:22:58;;;;;;;;;;;19.30;66.50;;;;;;5045554;27;90843;-57
2022/10/13 11:25:40;;;;;;;;;;;19.40;66.70;;;;;;5038740;27;95964;-51
2022/10/13 11:28:21;;;;;;;;;;;19.40;66.70;;;;;;5044260;27;91079;-55
2022/10/13 11:30:51;;;;;;;;;;;19.40;66.10;;;;;;5046624;27;89360;-54
2022/10/13 11:33:49;;;;;;;;;;;19.30;65.80;;;;;;5046604;27;91375;-54
2022/10/13 11:36:26;;;;;;;;;;;19.30;65.80;;;;;;5009200;27;90219;-55
2022/10/13 11:38:55;;;;;;;;;;;19.30;65.60;;;;;;5043439;27;91386;-53
2022/10/13 11:41:26;;;;;;;;;;;19.20;65.40;;;;;;5035218;27;90076;-54
2022/10/13 11:44:04;;;;;;;;;;;19.20;65.30;;;;;;5034790;27;91393;-55
2022/10/13 11:46:32;;;;;;;;;;;19.20;65.40;;;;;;5037091;27;94855;-53
2022/10/13 11:49:04;;;;;;;;;;;19.20;65.40;;;;;;5049592;27;93991;-55
2022/10/13 11:51:35;;;;;;;;;;;19.20;65.40;;;;;;5036041;27;90565;-57
2022/10/13 11:54:07;;;;;;;;;;;19.30;65.40;;;;;;5032139;27;93641;-58
2022/10/13 11:56:42;;;;;;;;;;;19.30;65.00;;;;;;5036808;27;91892;-59
2022/10/13 11:59:18;;;;;;;;;;;19.40;65.10;;;;;;5032893;27;90850;-58
2022/10/13 12:01:44;;;;;;;;;;;19.40;65.40;;;;;;5048773;27;92112;-57
2022/10/13 12:04:13;;;;;;;;;;;19.40;65.70;;;;;;5048928;27;90677;-56
2022/10/13 12:06:39;;;;;;;;;;;19.40;65.70;;;;;;5037571;27;89985;-57
2022/10/13 12:09:15;;;;;;;;;;;19.40;65.90;;;;;;5051070;27;89812;-58
2022/10/13 12:11:41;;;;;;;;;;;19.50;65.60;;;;;;5041259;27;91186;-54
2022/10/13 12:14:15;;;;;;;;;;;19.40;65.40;;;;;;5050529;27;89609;-53
2022/10/13 12:16:50;;;;;;;;;;;19.40;65.40;;;;;;5050724;27;89830;-53
2022/10/13 12:19:20;;;;;;;;;;;19.50;65.30;;;;;;5043293;27;90907;-54
2022/10/13 12:21:53;;;;;;;;;;;19.40;65.10;;;;;;5049390;27;88756;-54
2022/10/13 12:24:21;;;;;;;;;;;19.40;65.10;;;;;;5053414;27;93114;-54
2022/10/13 12:26:46;;;;;;;;;;;19.40;65.00;;;;;;5053644;27;89834;-52
2022/10/13 12:29:13;;;;;;;;;;;19.50;65.00;;;;;;5040986;27;96048;-57
2022/10/13 12:31:46;;;;;;;;;;;19.40;64.90;;;;;;5049313;27;89930;-58
2022/10/13 12:34:20;;;;;;;;;;;19.50;65.30;;;;;;5046561;27;91018;-59
2022/10/13 12:36:51;;;;;;;;;;;19.50;65.50;;;;;;5044168;27;91675;-56
2022/10/13 12:39:17;;;;;;;;;;;19.50;65.60;;;;;;5041054;27;89444;-72
2022/10/13 12:41:44;;;;;;;;;;;19.60;66.40;;;;;;5045818;27;89379;-67
2022/10/13 12:44:20;;;;;;;;;;;19.60;66.00;;;;;;5044077;27;91426;-67
2022/10/13 12:46:55;;;;;;;;;;;19.60;66.10;;;;;;5045386;27;91662;-61
2022/10/13 12:49:23;;;;;;;;;;;19.60;66.10;;;;;;5039442;27;90381;-68
2022/10/13 12:51:54;;;;;;;;;;;19.60;66.10;;;;;;5046035;27;89577;-69
2022/10/13 12:54:21;;;;;;;;;;;19.60;66.00;;;;;;5043070;27;92600;-68
2022/10/13 12:56:47;;;;;;;;;;;19.60;66.10;;;;;;5042461;27;92166;-64
2022/10/13 12:59:15;;;;;;;;;;;19.60;66.10;;;;;;5031242;27;90805;-65
2022/10/13 13:01:41;;;;;;;;;;;19.70;65.90;;;;;;5037111;27;91510;-65
2022/10/13 13:04:15;;;;;;;;;;;19.60;65.70;;;;;;5050874;27;90407;-63
2022/10/13 13:06:50;;;;;;;;;;;19.60;65.60;;;;;;5043895;27;90064;-62
2022/10/13 13:09:20;;;;;;;;;;;19.60;65.50;;;;;;5045364;27;90836;-65
2022/10/13 13:11:46;;;;;;;;;;;19.60;65.40;;;;;;5048744;27;89254;-61
2022/10/13 13:14:47;;;;;;;;;;;19.50;65.30;;;;;;5048882;27;93516;-67
2022/10/13 13:17:15;;;;;;;;;;;19.50;65.20;;;;;;5012792;27;92076;-64
2022/10/13 13:19:41;;;;;;;;;;;19.50;65.10;;;;;;5031326;27;92250;-65
2022/10/13 13:22:07;;;;;;;;;;;19.50;65.10;;;;;;5036413;27;93369;-69
2022/10/13 13:24:33;;;;;;;;;;;19.60;64.90;;;;;;5027024;27;90841;-65
2022/10/13 13:26:58;;;;;;;;;;;19.60;64.70;;;;;;5038773;27;91706;-73
2022/10/13 13:29:24;;;;;;;;;;;19.60;65.20;;;;;;5039075;27;94027;-67
2022/10/13 13:31:49;;;;;;;;;;;19.50;65.30;;;;;;5043118;27;91760;-69
2022/10/13 13:34:15;;;;;;;;;;;19.60;65.60;;;;;;5032687;27;94242;-68
2022/10/13 13:36:40;;;;;;;;;;;19.60;65.30;;;;;;5036317;27;90528;-70
2022/10/13 13:39:16;;;;;;;;;;;19.60;65.70;;;;;;5039334;27;90531;-61
2022/10/13 13:41:42;;;;;;;;;;;19.60;65.70;;;;;;5030513;27;90002;-62
2022/10/13 13:44:08;;;;;;;;;;;19.70;65.60;;;;;;5049132;27;92894;-59
2022/10/13 13:46:34;;;;;;;;;;;19.70;65.70;;;;;;5016688;27;92335;-70
2022/10/13 13:48:59;;;;;;;;;;;19.70;65.80;;;;;;5043426;27;95345;-64
2022/10/13 13:51:25;;;;;;;;;;;19.70;65.80;;;;;;5046734;27;90586;-66
2022/10/13 13:53:50;;;;;;;;;;;19.70;65.80;;;;;;5043426;27;91042;-72
2022/10/13 13:56:16;;;;;;;;;;;19.70;65.90;;;;;;5040719;27;95525;-63
2022/10/13 13:58:43;;;;;;;;;;;19.70;65.90;;;;;;5033150;27;92496;-61
2022/10/13 14:01:09;;;;;;;;;;;19.70;65.90;;;;;;5049364;27;90234;-65
2022/10/13 14:03:34;;;;;;;;;;;19.70;65.60;;;;;;5049468;27;91288;-65
2022/10/13 14:06:00;;;;;;;;;;;19.70;65.40;;;;;;5036132;27;90338;-67
2022/10/13 14:08:28;;;;;;;;;;;19.70;65.40;;;;;;5029171;27;91641;-65
2022/10/13 14:10:54;;;;;;;;;;;19.70;65.20;;;;;;5045684;27;90151;-63
2022/10/13 14:13:19;;;;;;;;;;;19.70;64.90;;;;;;5039722;27;92796;-62
2022/10/13 14:15:45;;;;;;;;;;;19.70;65.20;;;;;;5046934;27;90682;-71
2022/10/13 14:18:12;;;;;;;;;;;19.80;65.50;;;;;;5040048;27;94738;-78
2022/10/13 14:20:39;;;;;;;;;;;19.70;65.60;;;;;;5046262;27;90699;-77
2022/10/13 14:23:05;;;;;;;;;;;19.80;65.70;;;;;;5050491;27;94082;-72